Time;durP1;ratioP1;P1;durP2;ratioP2;P2;SDS_P1;SDS_P2;PMS_P1;PMS_P2;Temp;Humidity;BMP_temperature;BMP_pressure;BME280_temperature;BME280_humidity;BME280_pressure;Samples;Min_cycle;Max_cycle;Signal;HPM_P1;HPM_P2
2022/07/16 00:02:47;;;;;;;1.10;1.10;;;;;;;21.69;64.04;97555.56;6099863;23;20184;-93
2022/07/16 00:05:14;;;;;;;1.10;1.10;;;;;;;23.24;64.06;97819.63;6072727;23;20175;-93
2022/07/16 00:07:41;;;;;;;1.10;1.10;;;;;;;20.64;63.79;97386.22;6096487;23;20195;-93
2022/07/16 00:10:08;;;;;;;1.10;1.10;;;;;;;22.29;64.15;97664.00;6072560;23;20406;-93
2022/07/16 00:12:36;;;;;;;1.00;1.00;;;;;;;21.49;64.17;97519.19;6095841;23;20215;-91
2022/07/16 00:15:03;;;;;;;1.00;1.00;;;;;;;21.40;63.85;97500.13;6094347;23;20155;-93
2022/07/16 00:17:30;;;;;;;1.17;1.17;;;;;;;22.20;64.04;97648.38;6096238;23;20215;-93
2022/07/16 00:19:58;;;;;;;1.13;1.13;;;;;;;21.33;63.93;97514.44;6096529;23;20151;-94
2022/07/16 00:22:27;;;;;;;1.30;1.20;;;;;;;21.15;64.04;97467.91;6072905;23;20159;-93
2022/07/16 00:24:54;;;;;;;1.50;1.40;;;;;;;21.89;64.17;97592.88;6073035;23;20156;-92
2022/07/16 00:27:21;;;;;;;1.30;1.20;;;;;;;21.67;64.10;97549.53;6097024;23;20159;-94
2022/07/16 00:29:48;;;;;;;1.20;1.20;;;;;;;21.80;63.91;97591.72;6097787;23;20160;-93
2022/07/16 00:32:17;;;;;;;0.97;0.97;;;;;;;20.90;63.88;97427.03;6075033;23;20180;-94
2022/07/16 00:34:44;;;;;;;1.13;1.10;;;;;;;23.31;64.10;97848.91;6074440;23;20216;-93
2022/07/16 00:37:13;;;;;;;1.00;1.00;;;;;;;21.39;64.08;97503.53;6074682;23;20183;-93
2022/07/16 00:39:40;;;;;;;1.20;1.20;;;;;;;23.01;64.21;97776.22;6074765;23;20160;-94
2022/07/16 00:42:07;;;;;;;1.17;1.17;;;;;;;21.00;63.89;97433.34;6074275;23;20160;-93
2022/07/16 00:44:34;;;;;;;1.10;1.10;;;;;;;22.92;63.98;97773.41;6097376;23;20171;-93
2022/07/16 00:47:05;;;;;;;1.20;1.10;;;;;;;21.45;64.03;97509.69;6097916;23;20172;-92
2022/07/16 00:49:32;;;;;;;1.23;1.13;;;;;;;21.51;64.07;97521.78;6074669;23;20164;-92
2022/07/16 00:51:59;;;;;;;1.17;1.17;;;;;;;21.16;63.74;97474.72;6097888;23;20239;-93
2022/07/16 00:54:26;;;;;;;1.20;1.20;;;;;;;22.89;64.10;97753.66;6074229;23;20162;-93
2022/07/16 00:56:56;;;;;;;1.00;1.00;;;;;;;21.88;63.93;97574.91;6074097;23;20251;-93
2022/07/16 00:59:24;;;;;;;1.20;1.20;;;;;;;21.86;64.03;97582.53;6073693;23;20199;-94
2022/07/16 01:01:51;;;;;;;1.30;1.20;;;;;;;21.77;63.85;97578.84;6096102;23;20176;-94
2022/07/16 01:04:18;;;;;;;1.10;1.10;;;;;;;21.87;63.94;97609.84;6073527;23;20199;-92
2022/07/16 01:06:45;;;;;;;1.20;1.10;;;;;;;21.44;63.80;97520.72;6073986;23;20175;-93
2022/07/16 01:09:13;;;;;;;1.17;1.17;;;;;;;22.80;64.08;97743.16;6097938;23;20251;-94
2022/07/16 01:11:40;;;;;;;1.00;1.00;;;;;;;21.37;63.83;97511.16;6073961;23;20191;-93
2022/07/16 01:14:07;;;;;;;1.10;1.10;;;;;;;21.34;64.16;97515.28;6073531;23;20160;-92
2022/07/16 01:16:34;;;;;;;1.27;1.27;;;;;;;21.88;64.08;97586.03;6073330;23;20183;-93
2022/07/16 01:19:02;;;;;;;1.10;1.10;;;;;;;22.79;64.12;97756.81;6097558;23;20216;-93
2022/07/16 01:21:29;;;;;;;1.13;1.13;;;;;;;23.23;63.95;97811.88;6097490;23;20164;-94
2022/07/16 01:23:56;;;;;;;1.37;1.27;;;;;;;21.81;64.13;97565.31;6074636;23;20207;-94
2022/07/16 01:26:23;;;;;;;1.10;1.10;;;;;;;21.75;63.82;97560.00;6074318;23;20195;-93
2022/07/16 01:28:51;;;;;;;1.30;1.20;;;;;;;22.84;63.99;97739.88;6073948;23;20202;-93
2022/07/16 01:31:18;;;;;;;1.20;1.13;;;;;;;21.17;64.06;97481.56;6073223;23;20175;-93
2022/07/16 01:34:24;;;;;;;1.10;1.10;;;;;;;20.72;63.83;97397.53;6074719;23;20167;-93
2022/07/16 01:36:32;;;;;;;1.30;1.27;;;;;;;20.51;63.80;97364.53;6103621;23;20187;-93
2022/07/16 01:38:59;;;;;;;1.30;1.20;;;;;;;21.78;64.08;97566.09;6075900;23;20211;-93
2022/07/16 01:41:26;;;;;;;1.20;1.10;;;;;;;20.57;63.79;97366.44;6075676;23;20347;-93
2022/07/16 01:43:56;;;;;;;1.03;1.03;;;;;;;22.23;63.65;97661.25;6076654;23;20905;-93
2022/07/16 01:46:23;;;;;;;1.40;1.30;;;;;;;21.89;64.20;97581.75;6074580;23;20175;-93
2022/07/16 01:48:50;;;;;;;1.03;1.03;;;;;;;20.73;64.04;97392.50;6075185;23;20207;-94
2022/07/16 01:51:17;;;;;;;1.10;1.10;;;;;;;20.98;64.00;97417.97;6075410;23;20172;-93
2022/07/16 01:53:44;;;;;;;1.10;1.10;;;;;;;21.82;63.83;97579.84;6075397;23;20156;-93
2022/07/16 01:56:11;;;;;;;1.50;1.10;;;;;;;22.87;64.00;97762.16;6075025;23;20175;-94
2022/07/16 01:58:39;;;;;;;1.37;1.27;;;;;;;21.02;64.08;97454.69;6075277;23;20175;-93
2022/07/16 02:01:06;;;;;;;1.03;1.03;;;;;;;20.38;63.88;97326.72;6098954;23;20206;-93
2022/07/16 02:03:33;;;;;;;1.17;1.10;;;;;;;23.30;63.97;97816.41;6075140;23;20231;-94
2022/07/16 02:06:00;;;;;;;1.20;1.20;;;;;;;22.60;64.06;97697.34;6075287;23;20156;-93
2022/07/16 02:08:27;;;;;;;1.10;1.10;;;;;;;21.16;64.21;97477.28;6075009;23;20184;-93
2022/07/16 02:10:56;;;;;;;1.17;1.17;;;;;;;22.02;64.01;97610.28;6075379;23;20187;-94
2022/07/16 02:13:23;;;;;;;1.00;1.00;;;;;;;22.79;64.04;97750.81;6075573;23;20175;-91
2022/07/16 02:15:50;;;;;;;1.10;1.10;;;;;;;21.23;63.79;97496.22;6098448;23;20203;-93
2022/07/16 02:18:17;;;;;;;1.40;1.30;;;;;;;21.13;64.07;97458.41;6075038;23;20200;-93
2022/07/16 02:20:46;;;;;;;1.20;1.20;;;;;;;21.86;63.68;97591.91;6074756;23;20175;-92
2022/07/16 02:23:13;;;;;;;1.27;1.20;;;;;;;21.92;63.93;97594.63;6075682;23;20183;-94
2022/07/16 02:25:40;;;;;;;1.20;1.20;;;;;;;23.25;63.74;97828.22;6075453;23;20216;-95
2022/07/16 02:28:07;;;;;;;1.20;1.20;;;;;;;21.04;63.79;97443.69;6075502;23;20243;-94
2022/07/16 02:30:52;;;;;;;1.40;1.30;;;;;;;20.80;63.74;97402.06;6074884;23;20196;-91
2022/07/16 02:33:20;;;;;;;1.00;1.00;;;;;;;21.01;63.76;97451.28;6098986;23;20160;-94
2022/07/16 02:35:47;;;;;;;1.50;1.30;;;;;;;20.86;64.00;97429.47;6099206;23;20190;-94
2022/07/16 02:38:15;;;;;;;1.30;1.20;;;;;;;21.87;63.86;97616.69;6075366;23;20180;-93
2022/07/16 02:40:42;;;;;;;1.37;1.27;;;;;;;22.85;64.01;97762.13;6075046;23;20206;-92
2022/07/16 02:43:09;;;;;;;1.40;1.30;;;;;;;22.98;63.94;97776.16;6075221;23;20156;-93
2022/07/16 02:45:37;;;;;;;1.30;1.20;;;;;;;22.78;63.91;97746.53;6098534;23;20160;-93
2022/07/16 02:48:05;;;;;;;1.17;1.17;;;;;;;21.09;63.99;97475.38;6098518;23;20190;-94
2022/07/16 02:50:31;;;;;;;1.10;1.10;;;;;;;23.30;63.83;97847.16;6074302;23;20176;-93
2022/07/16 02:52:58;;;;;;;1.10;1.10;;;;;;;21.48;63.80;97526.81;6074661;23;20552;-92
2022/07/16 02:55:26;;;;;;;1.30;1.20;;;;;;;21.89;64.07;97597.97;6074681;23;20224;-93
2022/07/16 02:57:53;;;;;;;1.10;1.10;;;;;;;20.93;63.82;97454.38;6098466;23;20259;-93
2022/07/16 03:00:20;;;;;;;1.30;1.20;;;;;;;21.15;64.02;97478.13;6074078;23;20155;-92
2022/07/16 03:02:47;;;;;;;1.13;1.13;;;;;;;21.53;64.07;97546.56;6098400;23;20168;-94
2022/07/16 03:05:14;;;;;;;1.43;1.10;;;;;;;23.28;64.12;97846.25;6074758;23;20166;-93
2022/07/16 03:07:42;;;;;;;1.17;1.13;;;;;;;22.98;63.85;97781.28;6074528;23;20186;-93
2022/07/16 03:10:09;;;;;;;1.40;1.30;;;;;;;23.29;64.27;97840.28;6098880;23;20166;-93
2022/07/16 03:12:36;;;;;;;1.60;1.50;;;;;;;21.71;64.07;97565.00;6074194;23;20235;-93
2022/07/16 03:15:04;;;;;;;1.40;1.30;;;;;;;21.30;63.89;97503.25;6074518;23;20167;-94
2022/07/16 03:17:31;;;;;;;1.67;1.30;;;;;;;21.08;63.70;97472.78;6074647;23;20198;-94
2022/07/16 03:19:58;;;;;;;1.40;1.30;;;;;;;20.95;64.02;97456.19;6098290;23;20150;-93
2022/07/16 03:22:25;;;;;;;1.30;1.20;;;;;;;20.77;63.85;97419.84;6098744;23;20229;-92
2022/07/16 03:24:52;;;;;;;1.37;1.27;;;;;;;21.89;64.06;97609.91;6075087;23;20148;-93
2022/07/16 03:27:19;;;;;;;1.50;1.40;;;;;;;21.40;64.05;97525.69;6075016;23;20162;-93
2022/07/16 03:29:46;;;;;;;1.37;1.33;;;;;;;21.43;63.61;97526.66;6074530;23;20156;-93
2022/07/16 03:32:13;;;;;;;1.40;1.30;;;;;;;21.01;63.75;97458.06;6098519;23;20191;-93
2022/07/16 03:34:40;;;;;;;1.60;1.50;;;;;;;21.25;63.99;97494.56;6074745;23;20171;-93
2022/07/16 03:37:07;;;;;;;1.20;1.20;;;;;;;21.86;63.84;97602.13;6075428;23;20155;-95
2022/07/16 03:39:34;;;;;;;1.50;1.40;;;;;;;23.29;64.21;97843.72;6075034;23;20160;-93
2022/07/16 03:42:01;;;;;;;1.37;1.27;;;;;;;21.76;63.94;97580.53;6074762;23;20192;-94
2022/07/16 03:44:28;;;;;;;1.40;1.30;;;;;;;21.45;63.82;97534.38;6074167;23;20183;-90
2022/07/16 03:46:55;;;;;;;1.13;1.13;;;;;;;20.72;63.72;97415.44;6074935;23;20199;-93
2022/07/16 03:49:22;;;;;;;1.20;1.10;;;;;;;20.80;63.98;97429.28;6098401;23;20199;-94
2022/07/16 03:51:49;;;;;;;1.40;1.30;;;;;;;;;;6074788;23;20183;-94
2022/07/16 03:54:16;;;;;;;1.30;1.30;;;;;;;21.13;64.04;97486.53;6098311;23;20156;-94
2022/07/16 03:56:43;;;;;;;1.30;1.20;;;;;;;20.70;63.87;97417.94;6074713;23;20167;-93
2022/07/16 03:59:10;;;;;;;1.20;1.20;;;;;;;21.34;64.16;97531.50;6074548;23;20192;-93
2022/07/16 04:01:38;;;;;;;1.40;1.30;;;;;;;21.89;64.02;97622.69;6074674;23;20162;-94
2022/07/16 04:04:05;;;;;;;1.43;1.33;;;;;;;21.87;64.29;97638.00;6074780;23;20182;-94
2022/07/16 04:06:32;;;;;;;1.20;1.20;;;;;;;21.66;63.91;97604.06;6074601;23;20313;-93
2022/07/16 04:09:02;;;;;;;1.47;1.37;;;;;;;22.76;64.00;97810.53;6074733;23;20176;-93
2022/07/16 04:11:29;;;;;;;1.20;1.20;;;;;;;21.25;63.71;97528.66;6073766;23;20231;-93
2022/07/16 04:13:56;;;;;;;1.40;1.30;;;;;;;21.81;63.69;97642.06;6073940;23;20191;-94
2022/07/16 04:16:23;;;;;;;1.13;1.13;;;;;;;21.87;64.05;97625.19;6074112;23;20239;-93
2022/07/16 04:18:50;;;;;;;1.43;1.00;;;;;;;21.52;64.01;97572.97;6075141;23;20203;-93
2022/07/16 04:21:17;;;;;;;1.50;1.40;;;;;;;21.87;64.11;97658.47;6098173;23;20159;-92
2022/07/16 04:23:45;;;;;;;1.20;1.20;;;;;;;21.85;64.18;97633.66;6075409;23;20156;-93
2022/07/16 04:26:15;;;;;;;1.30;1.20;;;;;;;22.68;63.82;97783.81;6074522;23;20176;-93
2022/07/16 04:28:42;;;;;;;1.20;1.20;;;;;;;21.49;63.84;97583.09;6098429;23;20180;-93
2022/07/16 04:31:09;;;;;;;1.40;1.30;;;;;;;20.75;63.79;97443.63;6098359;23;20238;-93
2022/07/16 04:33:36;;;;;;;1.23;1.20;;;;;;;20.76;63.99;97458.09;6074514;23;20219;-92
2022/07/16 04:36:04;;;;;;;1.40;1.30;;;;;;;21.42;63.89;97552.19;6122345;23;20152;-94
2022/07/16 04:38:31;;;;;;;1.37;1.30;;;;;;;21.39;64.09;97565.75;6074789;23;20206;-93
2022/07/16 04:40:58;;;;;;;1.33;1.23;;;;;;;21.72;63.90;97617.03;6098162;23;20156;-93
2022/07/16 04:43:27;;;;;;;1.30;1.20;;;;;;;20.96;63.95;97486.03;6074577;23;20163;-93
2022/07/16 04:45:54;;;;;;;1.40;1.30;;;;;;;22.74;64.00;97803.66;6075040;23;20156;-93
2022/07/16 04:48:21;;;;;;;1.17;1.17;;;;;;;21.78;63.94;97635.16;6074183;23;20180;-93
2022/07/16 04:50:48;;;;;;;1.50;1.40;;;;;;;20.93;63.70;97491.00;6074596;23;20160;-93
2022/07/16 04:53:15;;;;;;;1.27;1.27;;;;;;;21.63;63.53;97599.75;6074226;23;20198;-93
2022/07/16 17:55:49;;;;;;;1.00;1.00;;;;;;;21.47;63.91;97671.66;6082973;22;2868074;-92
2022/07/16 17:58:17;;;;;;;1.20;1.20;;;;;;;23.26;64.16;98001.75;6060627;23;20193;-93
2022/07/16 18:00:44;;;;;;;0.90;0.90;;;;;;;21.41;64.53;97689.38;6080271;23;20159;-93
2022/07/16 18:03:17;;;;;;;1.00;1.00;;;;;;;21.07;63.94;97620.09;6083755;23;20153;-92
2022/07/16 18:05:44;;;;;;;1.10;1.10;;;;;;;20.97;63.78;97595.09;6080122;23;20154;-92
2022/07/16 18:08:12;;;;;;;1.10;1.10;;;;;;;23.28;64.12;98001.00;6080035;23;20174;-93
2022/07/16 18:10:39;;;;;;;0.90;0.90;;;;;;;21.76;63.95;97745.97;6080509;23;20151;-92
2022/07/16 18:13:06;;;;;;;1.10;1.10;;;;;;;21.92;64.21;97777.19;6080206;23;20218;-92
2022/07/16 18:15:33;;;;;;;1.00;1.00;;;;;;;21.55;64.23;97720.50;6080413;23;20177;-93
2022/07/16 18:18:00;;;;;;;1.03;1.03;;;;;;;22.70;64.29;97904.28;6079782;23;20230;-93
2022/07/16 18:20:28;;;;;;;1.10;1.10;;;;;;;21.68;64.00;97743.97;6080185;23;20364;-93
2022/07/16 18:22:55;;;;;;;0.93;0.93;;;;;;;22.73;64.16;97912.94;6080040;23;20201;-94
2022/07/16 18:25:22;;;;;;;0.97;0.97;;;;;;;21.89;64.32;97773.66;6103842;23;20147;-93
2022/07/16 18:27:49;;;;;;;0.90;0.90;;;;;;;21.92;64.17;97777.19;6079879;23;20214;-92
2022/07/16 18:30:16;;;;;;;1.10;1.10;;;;;;;20.97;64.23;97627.41;6103661;23;20159;-93
2022/07/16 18:32:43;;;;;;;1.30;1.20;;;;;;;21.48;64.05;97719.47;6079945;23;20158;-92
2022/07/16 18:35:10;;;;;;;1.10;1.10;;;;;;;21.01;64.18;97648.00;6080013;23;20181;-92
2022/07/16 18:37:38;;;;;;;1.03;1.03;;;;;;;21.03;64.01;97651.50;6080126;23;20255;-92
2022/07/16 18:40:05;;;;;;;1.00;1.00;;;;;;;21.94;64.01;97805.38;6079875;23;20198;-93
2022/07/16 18:42:32;;;;;;;1.10;1.10;;;;;;;21.97;64.08;97802.94;6080108;23;20167;-93
2022/07/16 18:45:01;;;;;;;0.93;0.93;;;;;;;21.65;63.73;97756.66;6079781;23;20207;-92
2022/07/16 18:47:28;;;;;;;1.00;1.00;;;;;;;21.93;64.45;97813.91;6103762;23;20194;-93
2022/07/16 18:49:55;;;;;;;1.10;1.10;;;;;;;22.47;64.00;97910.38;6079725;23;20214;-93
2022/07/16 18:52:23;;;;;;;1.10;1.10;;;;;;;22.84;63.93;97970.53;6080164;23;20163;-92
2022/07/16 18:54:58;;;;;;;1.10;1.10;;;;;;;21.86;63.98;97805.16;6084562;23;20166;-94
2022/07/16 18:57:26;;;;;;;0.90;0.90;;;;;;;21.32;64.01;97711.25;6096977;23;20230;-93
2022/07/16 18:59:53;;;;;;;1.03;1.03;;;;;;;22.88;64.34;98005.69;6103836;23;20166;-92
2022/07/16 19:02:20;;;;;;;1.00;1.00;;;;;;;21.94;64.18;97836.09;6127464;23;20332;-93
2022/07/16 19:04:47;;;;;;;1.20;1.20;;;;;;;20.92;63.87;97659.56;6103440;23;20159;-93
2022/07/16 19:07:14;;;;;;;1.00;1.00;;;;;;;21.50;64.04;97755.31;6127344;23;20159;-92
2022/07/16 19:09:41;;;;;;;1.00;1.00;;;;;;;20.81;63.75;97661.75;6126827;23;20214;-92
2022/07/16 19:12:08;;;;;;;1.10;1.10;;;;;;;21.78;63.77;97808.25;6151451;23;20159;-91
2022/07/16 19:14:34;;;;;;;1.10;1.10;;;;;;;22.18;64.43;97886.41;6151765;23;20159;-91
2022/07/16 19:17:01;;;;;;;1.33;1.17;;;;;;;22.55;64.16;97939.69;6151640;23;20209;-92
2022/07/16 19:19:28;;;;;;;1.10;1.10;;;;;;;22.93;64.38;98010.94;6151958;23;20171;-92
2022/07/16 19:21:54;;;;;;;1.00;1.00;;;;;;;22.95;64.27;98017.00;6151701;23;20159;-92
2022/07/16 19:24:21;;;;;;;1.00;1.00;;;;;;;22.88;64.00;98003.13;6151806;23;20151;-92
2022/07/16 19:26:48;;;;;;;1.00;1.00;;;;;;;22.55;64.29;97952.50;6151661;23;20175;-92
2022/07/16 19:29:14;;;;;;;0.90;0.90;;;;;;;22.93;64.34;98024.66;6151895;23;20218;-91
2022/07/16 19:31:41;;;;;;;1.00;1.00;;;;;;;22.96;64.37;98029.00;6151705;23;20155;-91
2022/07/16 19:34:08;;;;;;;1.10;1.10;;;;;;;21.75;64.07;97832.06;6151640;23;20163;-91
2022/07/16 19:36:35;;;;;;;1.10;1.10;;;;;;;22.03;64.27;97883.34;6150638;23;20174;-92
2022/07/16 19:39:02;;;;;;;1.00;1.00;;;;;;;22.94;64.16;98040.88;6151958;23;20171;-92
2022/07/16 19:41:28;;;;;;;1.00;1.00;;;;;;;22.18;64.01;97908.56;6151649;23;20159;-91
2022/07/16 19:43:55;;;;;;;0.93;0.93;;;;;;;22.20;64.20;97912.06;6151659;23;20159;-91
2022/07/16 19:46:22;;;;;;;1.27;1.20;;;;;;;22.58;64.36;97981.66;6151727;23;20194;-91
2022/07/16 19:48:48;;;;;;;1.00;1.00;;;;;;;22.31;63.98;97946.53;6150902;23;20223;-91
2022/07/16 19:51:15;;;;;;;1.10;1.10;;;;;;;23.30;64.30;98108.78;6151752;23;20159;-91
2022/07/16 19:53:42;;;;;;;1.10;1.10;;;;;;;23.31;64.15;98113.94;6151441;23;20187;-92
2022/07/16 19:58:54;;;;;;;1.00;1.00;;;;;;;22.09;64.46;97914.25;6151560;23;20193;-91
2022/07/16 20:01:20;;;;;;;1.00;1.00;;;;;;;22.95;64.11;98058.03;6151848;23;20163;-91
2022/07/16 20:03:48;;;;;;;1.17;1.17;;;;;;;22.00;64.06;97902.84;6127830;23;20159;-91
2022/07/16 20:06:20;;;;;;;1.13;1.10;;;;;;;22.57;64.18;97996.97;6153401;23;20158;-91
2022/07/16 20:08:46;;;;;;;1.20;1.20;;;;;;;22.94;64.28;98067.41;6153346;23;20171;-92
2022/07/16 20:11:20;;;;;;;1.20;1.10;;;;;;;22.14;64.32;97945.97;6153495;23;20394;-92
2022/07/16 20:13:48;;;;;;;1.20;1.20;;;;;;;22.92;64.27;98063.91;6127858;23;20198;-91
2022/07/16 20:16:15;;;;;;;1.10;1.10;;;;;;;22.22;64.03;97964.16;6153192;23;20194;-92
2022/07/16 20:18:48;;;;;;;1.10;1.10;;;;;;;22.02;64.10;97922.53;6153165;23;20172;-91
2022/07/16 20:21:15;;;;;;;1.00;1.00;;;;;;;21.54;64.22;97846.66;6153190;23;20194;-91
2022/07/16 20:23:41;;;;;;;1.33;1.20;;;;;;;22.94;64.22;98071.63;6153300;23;20166;-91
2022/07/16 20:26:08;;;;;;;1.10;1.10;;;;;;;22.94;64.23;98084.47;6153060;23;20174;-92
2022/07/16 20:28:35;;;;;;;1.00;1.00;;;;;;;22.94;64.16;98082.78;6153358;23;20167;-91
2022/07/16 20:31:01;;;;;;;1.10;1.10;;;;;;;22.42;64.78;98004.13;6153131;23;20265;-91
2022/07/16 20:33:28;;;;;;;1.00;1.00;;;;;;;22.63;64.00;98038.16;6153208;23;20170;-91
2022/07/16 20:35:54;;;;;;;1.00;1.00;;;;;;;22.56;64.28;98033.66;6152784;23;20163;-92
2022/07/16 20:38:21;;;;;;;1.10;1.10;;;;;;;22.34;64.12;97991.06;6153052;23;20190;-91
2022/07/16 20:40:48;;;;;;;1.10;1.10;;;;;;;22.60;64.14;98033.81;6152796;23;20168;-91
2022/07/16 20:43:16;;;;;;;0.90;0.90;;;;;;;22.85;64.13;98079.03;6153323;23;20167;-91
2022/07/16 20:45:42;;;;;;;1.10;1.10;;;;;;;22.93;64.07;98098.09;6127823;23;20192;-91
2022/07/16 20:48:09;;;;;;;1.20;1.20;;;;;;;22.59;64.08;98041.44;6153208;23;20183;-91
2022/07/16 20:50:35;;;;;;;1.10;1.10;;;;;;;22.15;64.48;97977.59;6152872;23;20159;-91
2022/07/16 20:53:02;;;;;;;1.10;1.10;;;;;;;22.56;64.13;98037.06;6128198;23;20151;-91
2022/07/16 20:55:31;;;;;;;1.00;1.00;;;;;;;22.93;64.20;98100.66;6152580;23;20178;-91
2022/07/16 20:57:58;;;;;;;1.07;1.07;;;;;;;22.42;64.62;98032.28;6152873;23;20259;-91
2022/07/16 21:00:25;;;;;;;1.00;1.00;;;;;;;22.06;64.13;97950.00;6153028;23;20166;-92
2022/07/16 21:02:51;;;;;;;1.10;1.10;;;;;;;22.16;64.03;97972.50;6152776;23;20170;-91
2022/07/16 21:05:18;;;;;;;1.00;1.00;;;;;;;22.93;64.32;98110.91;6152885;23;20227;-91
2022/07/16 21:07:45;;;;;;;1.10;1.10;;;;;;;22.93;64.35;98103.22;6152619;23;20450;-91
2022/07/16 21:10:11;;;;;;;1.10;1.10;;;;;;;22.29;64.48;97999.41;6152971;23;20151;-91
2022/07/16 21:12:38;;;;;;;1.10;1.10;;;;;;;22.92;64.61;98111.75;6152079;23;20175;-92
2022/07/16 21:15:05;;;;;;;1.10;1.10;;;;;;;21.62;63.64;97889.56;6152790;23;20170;-91
2022/07/16 21:17:32;;;;;;;1.10;1.10;;;;;;;22.57;64.04;98053.31;6152402;23;20199;-92
2022/07/16 21:19:59;;;;;;;1.20;1.20;;;;;;;22.56;64.47;98047.31;6152989;23;20195;-91
2022/07/16 21:22:27;;;;;;;1.30;1.20;;;;;;;22.89;64.42;98112.50;6152653;23;20155;-91
2022/07/16 21:24:53;;;;;;;1.10;1.10;;;;;;;22.28;64.18;98015.56;6127811;23;20179;-91
2022/07/16 21:27:20;;;;;;;1.00;1.00;;;;;;;22.93;64.56;98127.19;6152476;23;20183;-91
2022/07/16 21:29:47;;;;;;;1.00;1.00;;;;;;;22.14;64.60;98007.41;6152740;23;20174;-91
2022/07/16 21:32:14;;;;;;;1.10;1.10;;;;;;;22.59;64.25;98070.47;6152343;23;20167;-91
2022/07/16 21:34:41;;;;;;;1.03;1.03;;;;;;;22.21;64.16;98013.63;6152558;23;20179;-92
2022/07/16 21:37:07;;;;;;;1.10;1.10;;;;;;;22.57;64.39;98069.56;6152383;23;20183;-91
2022/07/16 21:39:34;;;;;;;1.00;1.00;;;;;;;22.57;64.29;98077.25;6152541;23;20159;-91
2022/07/16 21:42:02;;;;;;;1.00;1.00;;;;;;;21.85;64.28;97959.50;6127671;23;20171;-90
2022/07/16 21:44:29;;;;;;;0.97;0.97;;;;;;;22.32;64.00;98051.56;6152233;23;20171;-91
2022/07/16 21:46:55;;;;;;;1.10;1.10;;;;;;;22.93;64.09;98141.69;6127654;23;20175;-91
2022/07/16 21:49:22;;;;;;;1.30;1.20;;;;;;;22.89;64.17;98129.59;6152103;23;20182;-91
2022/07/16 21:51:49;;;;;;;1.27;1.20;;;;;;;22.24;64.07;98029.09;6152554;23;20202;-91
2022/07/16 21:54:15;;;;;;;1.00;1.00;;;;;;;22.19;64.58;98016.13;6152092;23;20159;-91
2022/07/16 21:56:42;;;;;;;1.10;1.10;;;;;;;22.19;64.42;98022.94;6152299;23;20413;-92
2022/07/16 21:59:09;;;;;;;0.97;0.97;;;;;;;22.15;64.46;98029.66;6127221;23;20182;-91
2022/07/16 22:01:36;;;;;;;1.20;1.20;;;;;;;22.93;64.08;98152.81;6152351;23;20178;-91
2022/07/16 22:04:03;;;;;;;1.10;1.10;;;;;;;22.12;64.32;98013.31;6151975;23;20445;-92
2022/07/16 22:06:42;;;;;;;1.00;1.00;;;;;;;22.20;64.30;98034.94;6152403;23;20148;-91
2022/07/16 22:09:09;;;;;;;1.07;1.07;;;;;;;22.81;64.19;98137.03;6152149;23;20198;-91
2022/07/16 22:11:35;;;;;;;1.17;1.17;;;;;;;22.15;64.52;98039.03;6152375;23;20186;-92
2022/07/16 22:14:02;;;;;;;1.10;1.10;;;;;;;22.58;64.38;98102.06;6152034;23;20182;-91
2022/07/16 22:16:29;;;;;;;1.20;1.20;;;;;;;22.61;64.24;98107.28;6151844;23;20155;-91
2022/07/16 22:21:41;;;;;;;2.27;1.30;;;;;;;22.90;64.37;98162.09;6130992;23;20170;-91
2022/07/16 22:24:08;;;;;;;1.10;1.10;;;;;;;23.32;64.34;98235.34;6152157;23;20166;-91
2022/07/16 22:26:34;;;;;;;1.23;1.20;;;;;;;22.93;64.34;98175.88;6151676;23;20154;-91
2022/07/16 22:29:01;;;;;;;1.10;1.10;;;;;;;21.92;64.20;98016.84;6127209;23;20187;-91
2022/07/16 22:31:28;;;;;;;1.00;1.00;;;;;;;22.33;64.25;98103.69;6151965;23;20147;-91
2022/07/16 22:33:56;;;;;;;1.00;1.00;;;;;;;21.89;64.30;98009.94;6127455;23;20170;-91
2022/07/16 22:36:22;;;;;;;1.10;1.10;;;;;;;22.64;64.14;98150.06;6126922;23;20166;-92
2022/07/16 22:38:49;;;;;;;1.30;1.30;;;;;;;22.60;64.26;98133.72;6151809;23;20209;-92
2022/07/16 22:41:15;;;;;;;1.20;1.10;;;;;;;22.88;63.86;98184.22;6151542;23;20159;-91
2022/07/16 22:43:42;;;;;;;1.13;1.13;;;;;;;22.13;64.19;98056.00;6152107;23;20163;-91
2022/07/16 22:46:08;;;;;;;1.20;1.20;;;;;;;22.03;64.03;98042.03;6151761;23;20159;-91
2022/07/16 22:48:38;;;;;;;1.10;1.10;;;;;;;22.12;64.18;98069.63;6152038;23;20190;-91
2022/07/16 22:51:05;;;;;;;1.10;1.10;;;;;;;22.26;64.06;98076.97;6151894;23;20220;-91
2022/07/16 22:53:32;;;;;;;1.27;1.17;;;;;;;22.19;64.30;98064.78;6151960;23;20167;-91
2022/07/16 22:55:59;;;;;;;1.20;1.20;;;;;;;22.29;63.84;98101.84;6151757;23;20179;-92
2022/07/16 22:58:26;;;;;;;1.27;1.20;;;;;;;22.54;64.10;98127.50;6126676;23;20199;-91
2022/07/16 23:00:52;;;;;;;1.17;1.17;;;;;;;22.93;64.16;98190.38;6151967;23;20202;-90
2022/07/16 23:03:19;;;;;;;1.10;1.10;;;;;;;22.93;64.23;98198.06;6151722;23;20148;-91
2022/07/16 23:05:46;;;;;;;1.10;1.10;;;;;;;22.46;64.59;98105.84;6151708;23;20183;-91
2022/07/16 23:08:12;;;;;;;1.27;1.20;;;;;;;22.91;64.19;98194.56;6151676;23;20186;-91
2022/07/16 23:10:39;;;;;;;1.10;1.00;;;;;;;22.59;64.28;98139.66;6151967;23;20155;-91
2022/07/16 23:13:06;;;;;;;1.13;1.10;;;;;;;22.92;64.21;98207.44;6151284;23;20168;-91
2022/07/16 23:15:32;;;;;;;1.17;1.17;;;;;;;23.30;64.21;98271.22;6151673;23;20348;-92
2022/07/16 23:17:59;;;;;;;1.20;1.20;;;;;;;22.76;64.19;98178.66;6151372;23;20199;-91
2022/07/16 23:20:27;;;;;;;1.37;1.23;;;;;;;22.82;64.30;98184.00;6152017;23;20148;-91
2022/07/16 23:22:55;;;;;;;1.43;1.33;;;;;;;22.34;64.34;98106.28;6151602;23;20163;-92
2022/07/16 23:25:23;;;;;;;1.20;1.20;;;;;;;22.54;64.22;98140.31;6151715;23;20167;-92
2022/07/16 23:27:49;;;;;;;1.30;1.20;;;;;;;22.17;63.87;98081.78;6126457;23;20178;-91
2022/07/16 23:30:17;;;;;;;1.30;1.20;;;;;;;22.90;64.05;98203.09;6152006;23;20218;-91
2022/07/16 23:32:43;;;;;;;1.30;1.20;;;;;;;22.93;64.46;98208.31;6151820;23;20178;-91
2022/07/16 23:35:10;;;;;;;1.10;1.10;;;;;;;22.93;64.20;98211.78;6151200;23;20163;-92
2022/07/16 23:37:36;;;;;;;1.40;1.30;;;;;;;22.60;64.17;98155.91;6151875;23;20222;-91
2022/07/16 23:40:04;;;;;;;1.40;1.30;;;;;;;22.13;64.28;98076.50;6153696;23;20166;-91
2022/07/16 23:42:31;;;;;;;1.10;1.10;;;;;;;22.12;64.34;98088.44;6153491;23;20179;-91
2022/07/16 23:44:57;;;;;;;1.20;1.20;;;;;;;22.90;64.18;98211.66;6153369;23;20159;-91
2022/07/16 23:47:24;;;;;;;1.40;1.30;;;;;;;22.54;64.30;98150.56;6153635;23;20159;-91
2022/07/16 23:49:51;;;;;;;1.30;1.20;;;;;;;22.33;64.20;98119.94;6153478;23;20182;-92
2022/07/16 23:52:17;;;;;;;1.33;1.20;;;;;;;22.93;63.88;98216.03;6128948;23;20160;-92
2022/07/16 23:54:44;;;;;;;1.30;1.20;;;;;;;21.96;64.11;98041.75;6153268;23;20211;-92
2022/07/16 23:57:11;;;;;;;1.37;1.27;;;;;;;22.92;64.10;98212.56;6143277;23;20193;-91
2022/07/16 23:59:37;;;;;;;1.53;1.43;;;;;;;22.93;64.24;98218.59;6153390;23;20147;-90
